Historique des mesures à Cassis (13260), France
Quotidien Résumé Aout 27, 2017 Unités:  Métrique    US   Métrique/US
« Précédent (Jour)
Suivant (Jour) »
Quotidien Hebdomadaire Mensuel Annuel Période au choix
  Maximum: Minimum: Moyenne:
Température: TemperatureC °C 23.6 °C 25.4 °C
Point de rosée: DewpointC °C 13.2 °C 15.9 °C
Humidité: Humidity % 48 % 52 %
Vitesse du vent: 0 km/h 0 km/h 2.3 km/h
Rafales: 0 km/h - -
Vent:- - SE
Pression: PressurehPa hPa 1011.7 hPa -
Précipitations: 0.0 mm    
Historical Graphs
 
 
Mesures pour : Aout 27, 2017
Heure Temperature Point de rosée Pression Vent Vitesse du vent Rafales Humidité Pluie (par heure) Conditions
TemperatureC °C DewpointC °C PressurehPa hPa Calm     Humidity % HourlyPrecipMM mm SoftwareType W/m2
00:11 23.9 °C 14.9 °C 1013.1 hPa North 2.3 km/h 4.2 km/h 57 % 0.0 mm open2300-1.11 W/m2
01:11 24.1 °C 15.3 °C 1012.8 hPa Calm   4.7 km/h 58 % 0.0 mm open2300-1.11 W/m2
02:11 23.8 °C 14.5 °C 1012.8 hPa NNE 2.3 km/h 2.3 km/h 56 % 0.0 mm open2300-1.11 W/m2
03:11 23.8 °C 14.5 °C 1012.8 hPa Calm   4.7 km/h 56 % 0.0 mm open2300-1.11 W/m2
04:11 23.6 °C 13.7 °C 1012.4 hPa NW 3.4 km/h 3.4 km/h 54 % 0.0 mm open2300-1.11 W/m2
06:11 23.9 °C 13.2 °C 1011.7 hPa North 5.6 km/h 6.4 km/h 51 % 0.0 mm open2300-1.11 W/m2
08:11 23.6 °C 13.4 °C 1012.4 hPa Calm     53 % 0.0 mm open2300-1.11 W/m2
09:11 24.9 °C 14.4 °C 1012.8 hPa Calm     52 % 0.0 mm open2300-1.11 W/m2
10:11 25.6 °C 15.9 °C 1013.1 hPa Calm     55 % 0.0 mm open2300-1.11 W/m2
11:11 27.9 °C 16.8 °C 1013.1 hPa SE 4.2 km/h 12.2 km/h 51 % 0.0 mm open2300-1.11 W/m2
12:11 29.8 °C 18.3 °C 1013.1 hPa SE 5.6 km/h 8 km/h 50 % 0.0 mm open2300-1.11 W/m2
13:11 30.5 °C 18.2 °C 1012.8 hPa SSE 2.3 km/h 10.9 km/h 48 % 0.0 mm open2300-1.11 W/m2
14:11 30.2 °C 20.1 °C 1012.8 hPa SSE 8 km/h 8 km/h 55 % 0.0 mm open2300-1.11 W/m2
15:11 29.9 °C 19.3 °C 1012.1 hPa SE 2.3 km/h 13.2 km/h 53 % 0.0 mm open2300-1.11 W/m2
16:11 29.9 °C 19.9 °C 1011.7 hPa ESE 4.2 km/h 6.4 km/h 55 % 0.0 mm open2300-1.11 W/m2
17:11 29.6 °C 20.2 °C 1011.7 hPa South 5.1 km/h 5.1 km/h 57 % 0.0 mm open2300-1.11 W/m2
18:11 28.9 °C 18.7 °C 1011.7 hPa SW 4.7 km/h 4.7 km/h 54 % 0.0 mm open2300-1.11 W/m2
19:11 27.9 °C 19.4 °C 1011.7 hPa SSE 2.3 km/h 2.3 km/h 60 % 0.0 mm open2300-1.11 W/m2
20:11 26.9 °C 19.0 °C 1011.7 hPa Calm   5.6 km/h 62 % 0.0 mm open2300-1.11 W/m2
21:11 25.8 °C 16.9 °C 1011.7 hPa Calm     58 % 0.0 mm open2300-1.11 W/m2
22:11 25.0 °C 15.3 °C 1012.1 hPa Calm     55 % 0.0 mm open2300-1.11 W/m2
23:11 24.6 °C 14.7 °C 1012.4 hPa Calm   2.3 km/h 54 % 0.0 mm open2300-1.11 W/m2
Observations météo à CASSIS
WU-History script by Weather Underground - 1 mb